createdAt,value
2023-04-15T00:05:06.819Z,3.33
2023-04-15T00:07:34.398Z,2.70
2023-04-15T00:10:02.949Z,3.73
2023-04-15T00:12:30.423Z,4.80
2023-04-15T00:14:59.384Z,1.27
2023-04-15T00:17:27.050Z,1.20
2023-04-15T00:19:55.504Z,0.90
2023-04-15T00:22:23.175Z,1.00
2023-04-15T00:24:50.575Z,1.07
2023-04-15T00:27:17.840Z,1.97
2023-04-15T00:29:45.176Z,3.57
2023-04-15T00:32:12.447Z,3.40
2023-04-15T00:34:39.749Z,3.43
2023-04-15T00:37:07.089Z,3.77
2023-04-15T00:39:34.456Z,7.50
2023-04-15T00:42:02.394Z,4.00
2023-04-15T00:44:29.606Z,2.50
2023-04-15T00:46:57.877Z,1.70
2023-04-15T00:49:25.584Z,1.00
2023-04-15T00:51:53.073Z,1.40
2023-04-15T00:54:20.325Z,0.90
2023-04-15T00:56:47.585Z,3.40
2023-04-15T00:59:15.932Z,1.27
2023-04-15T01:01:43.615Z,2.50
2023-04-15T01:04:12.632Z,3.50
2023-04-15T01:06:39.965Z,3.03
2023-04-15T01:09:07.213Z,3.13
2023-04-15T01:11:34.699Z,3.45
2023-04-15T01:14:02.185Z,4.60
2023-04-15T01:16:29.575Z,3.17
2023-04-15T01:18:57.362Z,1.80
2023-04-15T01:21:24.860Z,0.60
2023-04-15T01:23:54.223Z,1.13
2023-04-15T01:26:22.789Z,1.15
2023-04-15T01:28:51.193Z,0.80
2023-04-15T01:31:18.697Z,1.00
2023-04-15T01:33:47.309Z,1.17
2023-04-15T01:36:15.204Z,1.30
2023-04-15T01:38:42.540Z,2.30
2023-04-15T01:41:09.924Z,6.00
2023-04-15T01:43:37.633Z,3.50
2023-04-15T01:46:04.908Z,4.82
2023-04-15T01:48:32.746Z,3.65
2023-04-15T01:51:00.307Z,2.70
2023-04-15T01:53:27.715Z,2.13
2023-04-15T01:55:55.158Z,1.23
2023-04-15T01:58:24.381Z,1.63
2023-04-15T02:00:52.979Z,1.00
2023-04-15T02:03:20.558Z,0.90
2023-04-15T02:05:48.405Z,1.00
2023-04-15T02:08:15.629Z,0.90
2023-04-15T02:10:42.969Z,2.85
2023-04-15T02:13:11.226Z,3.57
2023-04-15T02:15:38.420Z,3.72
2023-04-15T02:18:05.633Z,4.50
2023-04-15T02:20:33.057Z,3.90
2023-04-15T02:23:00.382Z,1.65
2023-04-15T02:25:27.593Z,1.42
2023-04-15T02:27:55.722Z,1.48
2023-04-15T02:30:24.237Z,1.02
2023-04-15T02:32:51.720Z,1.20
2023-04-15T02:35:22.229Z,0.90
2023-04-15T02:37:49.485Z,2.67
2023-04-15T02:40:17.495Z,1.08
2023-04-15T02:42:44.913Z,1.17
2023-04-15T02:45:13.238Z,3.42
2023-04-15T02:47:41.878Z,4.00
2023-04-15T02:50:13.076Z,3.97
2023-04-15T02:52:42.053Z,3.83
2023-04-15T02:55:10.005Z,6.25
2023-04-15T02:57:41.462Z,4.20
2023-04-15T03:00:11.754Z,4.30
2023-04-15T03:02:40.271Z,4.10
2023-04-15T03:05:08.586Z,3.75
2023-04-15T03:07:35.942Z,5.82
2023-04-15T03:10:03.548Z,3.97
2023-04-15T03:12:30.975Z,3.08
2023-04-15T03:14:58.510Z,1.92
2023-04-15T03:17:25.836Z,1.60
2023-04-15T03:19:53.170Z,2.60
2023-04-15T03:22:22.687Z,1.63
2023-04-15T03:24:50.718Z,0.70
2023-04-15T03:27:18.243Z,1.35
2023-04-15T03:29:45.760Z,0.80
2023-04-15T03:32:13.155Z,2.85
2023-04-15T03:34:40.456Z,4.00
2023-04-15T03:37:07.769Z,4.20
2023-04-15T03:39:35.541Z,5.20
2023-04-15T03:42:03.722Z,4.93
2023-04-15T03:44:31.255Z,2.55
2023-04-15T03:46:58.621Z,3.08
2023-04-15T03:49:25.910Z,1.92
2023-04-15T03:51:53.973Z,1.02
2023-04-15T03:54:21.683Z,0.80
2023-04-15T03:56:49.025Z,4.38
2023-04-15T03:59:16.401Z,0.93
2023-04-15T04:01:43.851Z,1.83
2023-04-15T04:04:11.911Z,3.90
2023-04-15T04:06:39.694Z,4.43
2023-04-15T04:09:07.164Z,4.10
2023-04-15T04:11:34.385Z,4.40
2023-04-15T04:14:01.753Z,2.85
2023-04-15T04:16:28.996Z,2.90
2023-04-15T04:18:56.681Z,2.50
2023-04-15T04:21:24.209Z,1.00
2023-04-15T04:23:51.710Z,0.88
2023-04-15T04:26:20.016Z,0.90
2023-04-15T04:28:48.028Z,2.60
2023-04-15T04:31:15.338Z,0.98
2023-04-15T04:33:42.652Z,2.45
2023-04-15T04:36:10.107Z,2.95
2023-04-15T04:38:37.710Z,3.33
2023-04-15T04:41:05.007Z,6.88
2023-04-15T04:43:32.832Z,3.75
2023-04-15T04:46:00.382Z,2.50
2023-04-15T04:48:27.834Z,1.13
2023-04-15T04:50:55.493Z,1.15
2023-04-15T04:53:24.177Z,0.70
2023-04-15T04:55:51.596Z,0.90
2023-04-15T04:58:18.907Z,0.70
2023-04-15T05:00:46.307Z,1.60
2023-04-15T05:03:14.016Z,1.48
2023-04-15T05:05:41.914Z,3.08
2023-04-15T05:08:09.159Z,4.05
2023-04-15T05:10:37.040Z,3.38
2023-04-15T05:13:04.269Z,4.15
2023-04-15T05:15:31.661Z,2.60
2023-04-15T05:17:58.984Z,2.50
2023-04-15T05:20:26.832Z,1.77
2023-04-15T05:22:54.386Z,2.13
2023-04-15T05:25:22.358Z,0.80
2023-04-15T05:27:49.721Z,0.95
2023-04-15T05:30:17.024Z,0.90
2023-04-15T05:32:44.350Z,1.15
2023-04-15T05:35:11.900Z,3.28
2023-04-15T05:37:39.377Z,3.67
2023-04-15T05:40:07.197Z,3.95
2023-04-15T05:42:36.081Z,4.10
2023-04-15T05:45:05.778Z,4.93
2023-04-15T05:47:33.059Z,4.28
2023-04-15T05:50:00.559Z,2.28
2023-04-15T05:52:27.828Z,1.48
2023-04-15T05:54:55.751Z,0.90
2023-04-15T05:57:24.296Z,0.70
2023-04-15T05:59:54.433Z,1.27
2023-04-15T06:02:22.421Z,0.80
2023-04-15T06:04:49.797Z,4.65
2023-04-15T06:07:17.205Z,0.80
2023-04-15T06:09:45.056Z,1.35
2023-04-15T06:12:13.431Z,2.85
2023-04-15T06:14:40.965Z,2.95
2023-04-15T06:17:08.832Z,3.72
2023-04-15T06:19:36.955Z,2.85
2023-04-15T06:22:04.547Z,3.90
2023-04-15T06:24:33.388Z,2.67
2023-04-15T06:27:00.678Z,2.67
2023-04-15T06:29:28.083Z,1.60
2023-04-15T06:31:57.061Z,0.95
2023-04-15T06:34:24.894Z,0.90
2023-04-15T06:36:52.873Z,1.40
2023-04-15T06:39:20.434Z,0.90
2023-04-15T06:41:47.759Z,0.85
2023-04-15T06:44:15.004Z,2.25
2023-04-15T06:46:42.276Z,2.75
2023-04-15T06:49:09.511Z,3.28
2023-04-15T06:51:37.031Z,5.10
2023-04-15T06:54:06.406Z,3.47
2023-04-15T06:56:34.216Z,3.05
2023-04-15T06:59:02.015Z,2.45
2023-04-15T07:01:29.641Z,3.87
2023-04-15T07:03:57.454Z,1.80
2023-04-15T07:06:25.378Z,0.93
2023-04-15T07:08:53.048Z,0.90
2023-04-15T07:11:22.373Z,0.87
2023-04-15T07:13:49.848Z,2.17
2023-04-15T07:16:17.704Z,0.88
2023-04-15T07:18:45.020Z,1.27
2023-04-15T07:21:12.912Z,2.80
2023-04-15T07:23:40.442Z,3.10
2023-04-15T07:26:07.832Z,6.73
2023-04-15T07:28:35.065Z,2.90
2023-04-15T07:31:02.406Z,3.33
2023-04-15T07:33:29.782Z,2.33
2023-04-15T07:35:57.050Z,1.27
2023-04-15T07:38:24.286Z,1.13
2023-04-15T07:40:51.692Z,0.83
2023-04-15T07:43:21.294Z,0.70
2023-04-15T07:45:48.570Z,1.97
2023-04-15T07:48:16.394Z,1.00
2023-04-15T07:50:43.726Z,1.90
2023-04-15T07:53:11.035Z,2.50
2023-04-15T07:55:38.486Z,2.50
2023-04-15T07:58:05.795Z,3.63
2023-04-15T08:00:33.179Z,3.37
2023-04-15T08:03:00.498Z,1.63
2023-04-15T08:05:27.931Z,1.50
2023-04-15T08:07:55.323Z,0.70
2023-04-15T08:10:23.161Z,0.80
2023-04-15T08:12:51.164Z,0.70
2023-04-15T08:15:18.773Z,0.80
2023-04-15T08:17:46.085Z,0.70
2023-04-15T08:20:13.669Z,1.57
2023-04-15T08:22:41.288Z,2.03
2023-04-15T08:25:09.307Z,2.30
2023-04-15T08:27:36.985Z,2.30
2023-04-15T08:30:05.275Z,2.03
2023-04-15T08:32:32.875Z,2.73
2023-04-15T08:35:01.004Z,1.43
2023-04-15T08:37:28.636Z,1.17
2023-04-15T08:39:56.067Z,0.83
2023-04-15T08:42:33.059Z,3.97
2023-04-15T08:45:04.151Z,2.43
2023-04-15T08:47:34.745Z,1.67
2023-04-15T08:50:04.998Z,2.03
2023-04-15T08:52:32.492Z,2.53
2023-04-15T08:55:01.151Z,2.40
2023-04-15T08:57:32.370Z,2.33
2023-04-15T09:00:00.961Z,1.27
2023-04-15T09:02:29.226Z,1.70
2023-04-15T09:04:57.299Z,0.87
2023-04-15T09:07:24.850Z,0.70
2023-04-15T09:09:53.179Z,0.70
2023-04-15T09:12:20.963Z,0.70
2023-04-15T09:14:49.704Z,0.60
2023-04-15T09:17:21.584Z,1.47
2023-04-15T09:19:50.249Z,0.60
2023-04-15T09:22:18.070Z,3.00
2023-04-15T09:24:45.656Z,0.80
2023-04-15T09:27:17.432Z,1.97
2023-04-15T09:29:44.733Z,1.00
2023-04-15T09:32:15.896Z,1.73
2023-04-15T09:34:44.044Z,1.33
2023-04-15T09:37:24.616Z,2.07
2023-04-15T09:39:59.174Z,1.13
2023-04-15T09:42:27.199Z,2.30
2023-04-15T09:44:54.831Z,0.60
2023-04-15T09:47:32.638Z,0.60
2023-04-15T09:50:00.896Z,1.70
2023-04-15T09:52:29.139Z,0.97
2023-04-15T09:54:58.995Z,0.87
2023-04-15T09:57:27.560Z,0.77
2023-04-15T09:59:56.033Z,0.60
2023-04-15T10:02:24.036Z,0.80
2023-04-15T10:04:54.127Z,0.70
2023-04-15T10:07:24.197Z,0.80
2023-04-15T10:09:52.961Z,0.60
2023-04-15T10:12:21.887Z,0.60
2023-04-15T10:14:54.765Z,1.77
2023-04-15T10:17:23.704Z,0.67
2023-04-15T10:19:58.567Z,0.63
2023-04-15T10:22:27.736Z,0.63
2023-04-15T10:24:57.022Z,1.20
2023-04-15T10:27:24.996Z,0.73
2023-04-15T10:29:52.735Z,0.57
2023-04-15T10:32:21.897Z,0.70
2023-04-15T10:34:54.434Z,1.10
2023-04-15T10:37:33.927Z,0.60
2023-04-15T10:40:01.305Z,1.27
2023-04-15T10:42:35.604Z,0.70
2023-04-15T10:45:02.989Z,2.20
2023-04-15T10:47:30.360Z,1.33
2023-04-15T10:50:02.727Z,1.07
2023-04-15T10:52:30.937Z,2.50
2023-04-15T10:55:26.532Z,1.13
2023-04-15T10:57:55.284Z,0.60
2023-04-15T11:00:26.736Z,0.70
2023-04-15T11:03:08.186Z,0.60
2023-04-15T11:05:53.707Z,1.90
2023-04-15T11:08:22.203Z,0.80
2023-04-15T11:10:49.594Z,0.50
2023-04-15T11:13:18.750Z,0.60
2023-04-15T11:15:47.417Z,0.73
2023-04-15T11:18:25.178Z,0.80
2023-04-15T11:20:56.955Z,0.70
2023-04-15T11:23:40.130Z,0.60
2023-04-15T11:26:12.356Z,1.53
2023-04-15T11:28:42.185Z,1.43
2023-04-15T11:31:12.438Z,1.47
2023-04-15T11:33:55.303Z,1.80
2023-04-15T11:36:27.505Z,0.77
2023-04-15T11:38:56.079Z,0.60
2023-04-15T11:41:26.420Z,0.60
2023-04-15T11:43:54.637Z,0.50
2023-04-15T11:46:25.289Z,0.70
2023-04-15T11:48:54.161Z,0.60
2023-04-15T11:51:23.159Z,0.60
2023-04-15T11:53:52.539Z,0.60
2023-04-15T11:56:26.614Z,0.70
2023-04-15T11:58:57.307Z,0.50
2023-04-15T12:01:44.228Z,0.67
2023-04-15T12:04:16.030Z,1.63
2023-04-15T12:06:43.886Z,1.33
2023-04-15T12:09:21.324Z,1.83
2023-04-15T12:11:50.276Z,0.60
2023-04-15T12:14:25.238Z,0.60
2023-04-15T12:16:58.156Z,0.73
2023-04-15T12:19:28.905Z,0.77
2023-04-15T12:22:22.884Z,0.93
2023-04-15T12:24:57.589Z,0.60
2023-04-15T12:27:29.684Z,0.80
2023-04-15T12:30:05.531Z,1.10
2023-04-15T12:32:36.273Z,2.20
2023-04-15T12:35:03.760Z,2.33
2023-04-15T12:37:31.154Z,2.07
2023-04-15T12:39:58.442Z,0.80
2023-04-15T12:42:25.922Z,0.80
2023-04-15T12:44:53.824Z,0.63
2023-04-15T12:47:21.511Z,0.50
2023-04-15T12:49:49.952Z,0.60
2023-04-15T12:52:17.464Z,0.80
2023-04-15T12:54:44.926Z,1.07
2023-04-15T12:57:12.991Z,2.00
2023-04-15T12:59:40.439Z,2.30
2023-04-15T13:02:08.410Z,2.30
2023-04-15T13:04:35.925Z,2.90
2023-04-15T13:07:03.371Z,3.37
2023-04-15T13:09:31.461Z,2.00
2023-04-15T13:11:58.930Z,1.10
2023-04-15T13:14:27.397Z,0.77
2023-04-15T13:16:54.731Z,0.60
2023-04-15T13:19:22.649Z,0.60
2023-04-15T13:21:50.855Z,0.70
2023-04-15T13:24:18.379Z,0.70
2023-04-15T13:26:45.971Z,0.90
2023-04-15T13:29:14.521Z,1.73
2023-04-15T13:31:42.017Z,3.03
2023-04-15T13:34:09.391Z,2.30
2023-04-15T13:36:36.766Z,2.20
2023-04-15T13:39:05.817Z,3.43
2023-04-15T13:41:33.366Z,3.47
2023-04-15T13:44:00.926Z,1.80
2023-04-15T13:46:28.423Z,1.20
2023-04-15T13:48:55.973Z,0.70
2023-04-15T13:51:23.847Z,0.70
2023-04-15T13:53:51.326Z,0.70
2023-04-15T13:56:18.729Z,0.63
2023-04-15T13:58:46.199Z,0.60
2023-04-15T14:01:13.692Z,1.50
2023-04-15T14:03:41.721Z,2.20
2023-04-15T14:06:09.384Z,2.10
2023-04-15T14:08:36.672Z,1.87
2023-04-15T14:11:04.271Z,1.87
2023-04-15T14:13:31.662Z,2.40
2023-04-15T14:15:59.097Z,0.97
2023-04-15T14:18:26.477Z,1.00
2023-04-15T14:20:54.742Z,1.07
2023-04-15T14:23:23.461Z,0.70
2023-04-15T14:25:52.758Z,0.60
2023-04-15T14:28:20.184Z,0.60
2023-04-15T14:30:47.476Z,0.60
2023-04-15T14:33:14.891Z,1.03
2023-04-15T14:35:42.190Z,2.13
2023-04-15T14:38:11.644Z,2.30
2023-04-15T14:40:39.354Z,2.30
2023-04-15T14:43:06.718Z,10.17
2023-04-15T14:45:34.138Z,3.53
2023-04-15T14:48:01.889Z,2.50
2023-04-15T14:50:29.376Z,1.60
2023-04-15T14:52:59.811Z,1.40
2023-04-15T14:55:31.612Z,0.90
2023-04-15T14:58:01.579Z,1.17
2023-04-15T15:00:29.508Z,1.57
2023-04-15T15:02:57.897Z,1.00
2023-04-15T15:05:26.062Z,0.70
2023-04-15T15:07:53.621Z,0.60
2023-04-15T15:10:34.942Z,0.70
2023-04-15T15:13:10.709Z,2.13
2023-04-15T15:15:39.106Z,2.70
2023-04-15T15:18:06.669Z,2.93
2023-04-15T15:20:34.578Z,2.90
2023-04-15T15:23:01.950Z,1.77
2023-04-15T15:25:29.802Z,2.50
2023-04-15T15:27:58.114Z,1.13
2023-04-15T15:30:25.722Z,0.50
2023-04-15T15:32:53.423Z,0.67
2023-04-15T15:35:23.759Z,0.60
2023-04-15T15:37:51.606Z,0.70
2023-04-15T15:40:18.849Z,0.70
2023-04-15T15:42:47.663Z,0.90
2023-04-15T15:45:15.020Z,1.07
2023-04-15T15:47:43.109Z,2.63
2023-04-15T15:50:10.760Z,2.60
2023-04-15T15:52:38.237Z,2.30
2023-04-15T15:55:06.026Z,2.50
2023-04-15T15:57:33.295Z,2.57
2023-04-15T16:00:11.160Z,2.10
2023-04-15T16:03:05.039Z,2.70
2023-04-15T16:05:27.429Z,0.87
2023-04-15T16:07:54.761Z,0.67
2023-04-15T16:10:22.119Z,0.60
2023-04-15T16:12:50.462Z,0.63
2023-04-15T16:15:17.707Z,2.03
2023-04-15T16:17:45.020Z,1.80
2023-04-15T16:20:12.495Z,3.00
2023-04-15T16:22:42.057Z,4.43
2023-04-15T16:25:09.788Z,2.53
2023-04-15T16:27:53.776Z,3.00
2023-04-15T16:30:25.373Z,0.80
2023-04-15T16:32:55.001Z,0.70
2023-04-15T16:35:22.430Z,0.80
2023-04-15T16:37:49.815Z,0.67
2023-04-15T16:40:17.288Z,0.77
2023-04-15T16:42:44.671Z,1.43
2023-04-15T16:45:12.102Z,2.80
2023-04-15T16:47:39.442Z,3.10
2023-04-15T16:50:07.537Z,3.43
2023-04-15T16:52:34.962Z,4.30
2023-04-15T16:55:02.273Z,3.50
2023-04-15T16:58:00.971Z,2.00
2023-04-15T17:00:16.999Z,0.80
2023-04-15T17:02:44.373Z,1.77
2023-04-15T17:05:11.723Z,3.07
2023-04-15T17:07:39.080Z,3.03
2023-04-15T17:10:06.755Z,3.70
2023-04-15T17:12:34.102Z,5.20
2023-04-15T17:15:01.599Z,2.80
2023-04-15T17:17:29.026Z,0.97
2023-04-15T17:19:56.540Z,1.33
2023-04-15T17:22:24.739Z,0.80
2023-04-15T17:24:52.188Z,0.80
2023-04-15T17:27:19.472Z,0.80
2023-04-15T17:29:46.800Z,0.90
2023-04-15T17:32:14.244Z,2.40
2023-04-15T17:34:49.897Z,2.80
2023-04-15T17:37:18.699Z,1.00
2023-04-15T17:39:46.130Z,1.43
2023-04-15T17:42:13.795Z,2.20
2023-04-15T17:44:41.210Z,2.60
2023-04-15T17:47:08.645Z,2.50
2023-04-15T17:49:37.969Z,3.33
2023-04-15T17:52:05.452Z,3.50
2023-04-15T17:54:32.807Z,3.10
2023-04-15T17:57:00.515Z,3.00
2023-04-15T17:59:28.504Z,1.23
2023-04-15T18:01:56.575Z,1.00
2023-04-15T18:04:26.448Z,1.00
2023-04-15T18:06:54.464Z,0.90
2023-04-15T18:09:22.198Z,0.83
2023-04-15T18:11:49.483Z,0.80
2023-04-15T18:14:30.799Z,0.73
2023-04-15T18:17:01.970Z,2.97
2023-04-15T18:19:30.086Z,1.20
2023-04-15T18:21:58.305Z,1.10
2023-04-15T18:24:26.185Z,0.80
2023-04-15T18:26:54.411Z,0.70
2023-04-15T18:29:21.961Z,0.90
2023-04-15T18:31:49.510Z,1.23
2023-04-15T18:34:16.927Z,0.80
2023-04-15T18:36:44.264Z,2.27
2023-04-15T18:39:11.569Z,3.10
2023-04-15T18:41:38.924Z,2.73
2023-04-15T18:44:06.164Z,4.00
2023-04-15T18:46:33.713Z,3.73
2023-04-15T18:49:01.251Z,2.10
2023-04-15T18:51:28.450Z,1.27
2023-04-15T18:53:56.256Z,0.60
2023-04-15T18:56:23.774Z,1.00
2023-04-15T18:59:25.684Z,1.03
2023-04-15T19:01:38.313Z,3.07
2023-04-15T19:04:05.831Z,3.70
2023-04-15T19:06:33.945Z,3.13
2023-04-15T19:09:01.269Z,2.17
2023-04-15T19:11:28.675Z,1.47
2023-04-15T19:13:56.168Z,0.80
2023-04-15T19:16:23.976Z,1.13
2023-04-15T19:18:51.597Z,1.00
2023-04-15T19:21:18.945Z,0.87
2023-04-15T19:23:47.859Z,1.57
2023-04-15T19:26:15.159Z,1.67
2023-04-15T19:28:42.769Z,3.00
2023-04-15T19:31:10.112Z,2.80
2023-04-15T19:33:37.558Z,3.57
2023-04-15T19:36:07.512Z,3.10
2023-04-15T19:38:38.060Z,3.00
2023-04-15T19:41:05.287Z,3.33
2023-04-15T19:43:33.345Z,2.60
2023-04-15T19:46:00.986Z,2.80
2023-04-15T19:48:28.349Z,1.07
2023-04-15T19:50:57.515Z,0.80
2023-04-15T19:53:26.207Z,0.80
2023-04-15T19:55:53.868Z,1.00
2023-04-15T19:58:21.432Z,0.87
2023-04-15T20:00:48.664Z,1.10
2023-04-15T20:03:16.619Z,1.37
2023-04-15T20:05:44.065Z,2.00
2023-04-15T20:08:11.362Z,3.13
2023-04-15T20:10:41.624Z,3.93
2023-04-15T20:13:08.827Z,3.07
2023-04-15T20:15:36.244Z,3.63
2023-04-15T20:18:03.504Z,3.63
2023-04-15T20:20:31.007Z,2.47
2023-04-15T20:22:58.329Z,1.47
2023-04-15T20:25:26.009Z,1.00
2023-04-15T20:27:53.652Z,1.00
2023-04-15T20:30:21.327Z,0.90
2023-04-15T20:32:48.778Z,1.13
2023-04-15T20:35:16.340Z,1.17
2023-04-15T20:37:46.793Z,4.77
2023-04-15T20:40:14.904Z,2.50
2023-04-15T20:42:44.152Z,3.30
2023-04-15T20:45:11.715Z,2.67
2023-04-15T20:47:39.147Z,3.00
2023-04-15T20:50:07.061Z,4.30
2023-04-15T20:52:34.488Z,3.63
2023-04-15T20:55:01.804Z,2.20
2023-04-15T20:57:30.452Z,1.37
2023-04-15T20:59:57.888Z,1.50
2023-04-15T21:02:25.769Z,0.70
2023-04-15T21:04:53.419Z,1.10
2023-04-15T21:07:20.674Z,0.80
2023-04-15T21:09:48.111Z,0.70
2023-04-15T21:12:15.273Z,0.70
2023-04-15T21:14:42.561Z,3.17
2023-04-15T21:17:11.340Z,3.77
2023-04-15T21:19:39.123Z,3.80
2023-04-15T21:22:06.590Z,3.50
2023-04-15T21:24:33.911Z,2.30
2023-04-15T21:27:02.204Z,1.27
2023-04-15T21:29:29.620Z,1.03
2023-04-15T21:31:57.306Z,1.40
2023-04-15T21:34:24.829Z,0.90
2023-04-15T21:36:52.154Z,1.20
2023-04-15T21:39:19.532Z,0.87
2023-04-15T21:41:46.903Z,2.50
2023-04-15T21:44:15.069Z,2.83
2023-04-15T21:46:45.569Z,3.27
2023-04-15T21:49:13.817Z,3.03
2023-04-15T21:51:41.161Z,3.60
2023-04-15T21:54:08.495Z,2.60
2023-04-15T21:56:37.281Z,2.70
2023-04-15T21:59:04.808Z,2.07
2023-04-15T22:01:32.464Z,1.50
2023-04-15T22:03:59.915Z,1.33
2023-04-15T22:06:27.798Z,1.00
2023-04-15T22:08:57.757Z,1.00
2023-04-15T22:11:28.797Z,1.17
2023-04-15T22:13:57.703Z,1.27
2023-04-15T22:16:28.992Z,0.90
2023-04-15T22:18:56.991Z,1.00
2023-04-15T22:21:24.761Z,1.00
2023-04-15T22:23:52.348Z,1.10
2023-04-15T22:26:19.741Z,0.90
2023-04-15T22:28:47.164Z,2.67
2023-04-15T22:31:15.253Z,3.00
2023-04-15T22:33:42.851Z,3.37
2023-04-15T22:36:10.311Z,2.87
2023-04-15T22:38:37.684Z,2.90
2023-04-15T22:41:05.054Z,1.97
2023-04-15T22:43:32.420Z,1.77
2023-04-15T22:46:01.232Z,1.20
2023-04-15T22:48:28.740Z,1.57
2023-04-15T22:50:56.484Z,1.47
2023-04-15T22:53:23.811Z,0.67
2023-04-15T22:55:52.093Z,1.30
2023-04-15T22:58:19.522Z,0.90
2023-04-15T23:00:46.930Z,2.40
2023-04-15T23:03:14.364Z,2.80
2023-04-15T23:05:42.341Z,3.37
2023-04-15T23:08:09.805Z,3.80
2023-04-15T23:10:38.627Z,3.40
2023-04-15T23:13:06.142Z,3.60
2023-04-15T23:15:33.428Z,4.93
2023-04-15T23:18:02.351Z,1.27
2023-04-15T23:20:29.835Z,1.10
2023-04-15T23:22:57.385Z,1.60
2023-04-15T23:25:25.107Z,0.90
2023-04-15T23:27:52.394Z,1.63
2023-04-15T23:30:19.861Z,1.03
2023-04-15T23:32:47.454Z,2.23
2023-04-15T23:35:14.892Z,3.07
2023-04-15T23:37:42.432Z,2.90
2023-04-15T23:40:10.368Z,3.53
2023-04-15T23:42:37.696Z,2.90
2023-04-15T23:45:05.210Z,3.57
2023-04-15T23:47:32.499Z,1.70
2023-04-15T23:50:00.071Z,1.37
2023-04-15T23:52:27.992Z,0.83
2023-04-15T23:54:55.570Z,0.80
2023-04-15T23:57:23.052Z,0.90
2023-04-15T23:59:50.984Z,1.00
